Terminal Aerodrome Forecast
Issued by NWS

Home | Current Version | Previous Version | Text Only | Print | Product List | Glossary On
Versions: 1 2 3 4 5 6 7 8 9 10 11 12 13 14 15 16
000
FTUS46 KMTR 291402 AAA
TAFMRY
TAF AMD
KMRY 291402Z 2914/3012 00000KT 5SM BR OVC003
     FM291900 28005KT P6SM SKC
     FM292000 29010KT P6SM SKC
     FM300300 24005KT P6SM OVC006
     FM300900 VRB03KT P6SM OVC003=

USA.gov is the U.S. government's official web portal to all federal, state and local government web resources and services.